Time;durP1;ratioP1;P1;durP2;ratioP2;P2;SDS_P1;SDS_P2;PMS_P1;PMS_P2;Temp;Humidity;BMP_temperature;BMP_pressure;BME280_temperature;BME280_humidity;BME280_pressure;Samples;Min_cycle;Max_cycle;Signal;HPM_P1;HPM_P2
2022/09/26 00:01:17;;;;;;;6.05;0.90;;;13.70;99.90;;;;;;5131183;27;20068;-75
2022/09/26 00:03:48;;;;;;;7.57;1.63;;;13.70;99.90;;;;;;5097163;28;20048;-76
2022/09/26 00:06:16;;;;;;;3.22;1.20;;;13.70;99.90;;;;;;5098388;28;20043;-75
2022/09/26 00:08:44;;;;;;;4.40;1.38;;;13.70;99.90;;;;;;5097970;28;20040;-75
2022/09/26 00:11:11;;;;;;;7.00;1.95;;;13.60;99.90;;;;;;5096138;28;20421;-75
2022/09/26 00:13:40;;;;;;;5.32;1.52;;;13.50;99.90;;;;;;5097874;28;20036;-75
2022/09/26 00:16:07;;;;;;;9.82;1.60;;;13.50;99.90;;;;;;5131130;27;20148;-76
2022/09/26 00:18:33;;;;;;;6.28;1.48;;;13.50;99.90;;;;;;5130759;27;20051;-76
2022/09/26 00:21:10;;;;;;;6.55;1.52;;;13.50;99.90;;;;;;5130763;27;20076;-76
2022/09/26 00:23:37;;;;;;;5.07;1.60;;;13.40;99.90;;;;;;5097643;28;20040;-75
2022/09/26 00:26:04;;;;;;;6.20;1.13;;;13.40;99.90;;;;;;5130974;27;20070;-76
2022/09/26 00:28:30;;;;;;;6.32;1.83;;;13.50;99.90;;;;;;5130780;27;20044;-75
2022/09/26 00:30:55;;;;;;;7.10;1.70;;;13.50;99.90;;;;;;5130659;27;20101;-75
2022/09/26 00:33:23;;;;;;;5.38;1.83;;;13.50;99.90;;;;;;5097383;28;20044;-75
2022/09/26 00:35:52;;;;;;;4.55;1.55;;;13.50;99.90;;;;;;5097779;28;20123;-76
2022/09/26 00:38:18;;;;;;;6.68;1.40;;;13.40;99.90;;;;;;5096327;28;20050;-75
2022/09/26 00:40:45;;;;;;;9.95;3.13;;;13.40;99.90;;;;;;5097663;28;20312;-75
2022/09/26 00:43:47;;;;;;;6.78;1.60;;;13.50;99.90;;;;;;5097616;28;20119;-76
2022/09/26 00:46:30;;;;;;;10.65;1.80;;;13.40;99.90;;;;;;5064590;28;20052;-75
2022/09/26 00:49:23;;;;;;;6.35;1.67;;;13.30;99.90;;;;;;5130413;27;20052;-75
2022/09/26 00:51:58;;;;;;;7.35;2.03;;;13.30;99.90;;;;;;5130472;27;20044;-75
2022/09/26 00:54:25;;;;;;;7.63;2.00;;;13.10;99.90;;;;;;5097132;28;20097;-75
2022/09/26 00:56:54;;;;;;;3.97;1.80;;;13.00;99.90;;;;;;5097314;28;20048;-76
2022/09/26 00:59:28;;;;;;;5.72;1.98;;;13.10;99.90;;;;;;5097385;28;20036;-75
2022/09/26 01:01:56;;;;;;;6.70;2.10;;;13.20;99.90;;;;;;5097377;28;20119;-75
2022/09/26 01:04:26;;;;;;;4.93;2.00;;;13.30;99.90;;;;;;5095982;28;20044;-76
2022/09/26 01:06:55;;;;;;;4.78;2.30;;;13.40;99.90;;;;;;5096956;28;20077;-75
2022/09/26 01:09:21;;;;;;;5.97;2.30;;;13.30;99.90;;;;;;5130264;27;20076;-76
2022/09/26 01:11:47;;;;;;;5.85;2.08;;;13.20;99.90;;;;;;5097204;28;20330;-75
2022/09/26 01:14:13;;;;;;;8.80;2.40;;;13.30;99.90;;;;;;5097139;28;20040;-76
2022/09/26 01:16:43;;;;;;;7.10;1.92;;;13.30;99.90;;;;;;5095637;28;20040;-76
2022/09/26 01:19:27;;;;;;;5.22;1.63;;;13.30;99.90;;;;;;5097051;28;20078;-76
2022/09/26 01:22:18;;;;;;;7.45;2.22;;;13.30;99.90;;;;;;5128442;27;20047;-75
2022/09/26 01:24:47;;;;;;;9.27;2.08;;;13.40;99.90;;;;;;5096593;28;20122;-76
2022/09/26 01:27:43;;;;;;;6.13;1.80;;;13.30;99.90;;;;;;5096645;28;20097;-76
2022/09/26 01:30:27;;;;;;;11.23;2.17;;;13.30;99.90;;;;;;5129830;28;20036;-75
2022/09/26 01:33:12;;;;;;;8.75;2.20;;;13.40;99.90;;;;;;5096992;28;20032;-75
2022/09/26 01:36:03;;;;;;;5.00;1.95;;;13.20;99.90;;;;;;5095972;28;20040;-75
2022/09/26 01:38:31;;;;;;;6.68;2.25;;;13.30;99.90;;;;;;5129554;28;20051;-76
2022/09/26 01:41:10;;;;;;;7.35;2.65;;;13.30;99.90;;;;;;5096846;28;20040;-75
2022/09/26 01:43:54;;;;;;;7.03;2.40;;;13.10;99.90;;;;;;5095963;28;20047;-75
2022/09/26 01:46:34;;;;;;;6.50;2.60;;;13.30;99.90;;;;;;5129449;28;20126;-75
2022/09/26 01:49:33;;;;;;;7.22;2.50;;;13.30;99.90;;;;;;5096828;28;20040;-76
2022/09/26 01:52:06;;;;;;;6.25;2.20;;;13.30;99.90;;;;;;5094987;28;20428;-75
2022/09/26 01:54:50;;;;;;;6.97;2.30;;;13.40;99.90;;;;;;5129368;28;20051;-76
2022/09/26 01:57:25;;;;;;;4.95;2.58;;;13.50;99.90;;;;;;5129488;28;20052;-75
2022/09/26 01:59:59;;;;;;;7.43;2.67;;;13.40;99.90;;;;;;5095366;28;20082;-76
2022/09/26 02:02:29;;;;;;;8.73;2.22;;;13.30;99.90;;;;;;5129515;28;20036;-75
2022/09/26 02:05:10;;;;;;;7.30;2.20;;;13.10;99.90;;;;;;5096917;28;20047;-75
2022/09/26 02:07:42;;;;;;;4.95;1.77;;;13.20;99.90;;;;;;5129767;28;20044;-75
2022/09/26 02:10:28;;;;;;;9.05;2.58;;;13.20;99.90;;;;;;5095658;28;20036;-76
2022/09/26 02:13:03;;;;;;;6.85;2.35;;;13.30;99.90;;;;;;5129392;28;20036;-76
2022/09/26 02:15:33;;;;;;;9.77;2.70;;;13.40;99.90;;;;;;5129664;28;20052;-76
2022/09/26 02:18:18;;;;;;;9.32;3.03;;;13.40;99.90;;;;;;5095190;28;20314;-76
2022/09/26 02:20:54;;;;;;;7.28;2.63;;;13.30;99.90;;;;;;5096577;28;20329;-75
2022/09/26 02:23:20;;;;;;;;;;;13.30;99.90;;;;;;5095709;28;20040;-75
2022/09/26 02:25:47;;;;;;;5.75;2.30;;;13.30;99.90;;;;;;5095050;28;20049;-76
2022/09/26 02:28:14;;;;;;;7.82;2.78;;;13.40;99.90;;;;;;5129526;28;20036;-76
2022/09/26 02:30:43;;;;;;;8.65;2.83;;;13.40;99.90;;;;;;5129142;28;20236;-76
2022/09/26 02:33:09;;;;;;;11.40;2.55;;;13.50;99.90;;;;;;5096896;28;20042;-76
2022/09/26 02:35:53;;;;;;;5.68;2.30;;;13.50;99.90;;;;;;5115794;28;20036;-76
2022/09/26 02:38:24;;;;;;;7.32;2.42;;;13.50;99.90;;;;;;5099677;28;20481;-75
2022/09/26 02:40:55;;;;;;;10.95;2.60;;;13.50;99.90;;;;;;5098999;28;20310;-76
2022/09/26 02:44:00;;;;;;;7.43;2.63;;;13.50;99.90;;;;;;5098948;28;20040;-76
2022/09/26 02:46:39;;;;;;;10.05;3.20;;;13.50;99.90;;;;;;5075228;28;20059;-76
2022/09/26 02:49:45;;;;;;;10.27;3.08;;;13.40;99.90;;;;;;5098880;28;20040;-76
2022/09/26 02:52:30;;;;;;;6.70;2.92;;;13.40;99.90;;;;;;5132639;27;20066;-76
2022/09/26 02:55:10;;;;;;;7.88;3.42;;;13.40;99.90;;;;;;5098190;28;20058;-76
2022/09/26 02:58:04;;;;;;;7.03;2.50;;;13.50;99.90;;;;;;5115289;28;20046;-76
2022/09/26 03:01:02;;;;;;;9.07;2.50;;;13.30;99.90;;;;;;5132675;27;20488;-76
2022/09/26 03:03:41;;;;;;;9.88;3.13;;;13.30;99.90;;;;;;5097869;28;20472;-76
2022/09/26 03:06:12;;;;;;;10.75;3.28;;;13.30;99.90;;;;;;5099441;28;20085;-76
2022/09/26 03:08:48;;;;;;;10.80;2.75;;;13.20;99.90;;;;;;5098534;28;20040;-76
2022/09/26 03:11:18;;;;;;;11.45;2.30;;;13.20;99.90;;;;;;5098389;28;20128;-76
2022/09/26 03:13:45;;;;;;;9.75;2.88;;;13.00;99.90;;;;;;5098080;28;20127;-76
2022/09/26 03:16:13;;;;;;;5.72;2.58;;;13.00;99.90;;;;;;5114938;28;20175;-76
2022/09/26 03:19:16;;;;;;;5.95;3.28;;;12.90;99.90;;;;;;5131725;27;20184;-76
2022/09/26 03:21:44;;;;;;;7.35;3.17;;;12.90;99.90;;;;;;5085541;28;20087;-76
2022/09/26 03:24:11;;;;;;;11.00;3.67;;;12.90;99.90;;;;;;5114225;28;20044;-76
2022/09/26 03:26:37;;;;;;;12.02;4.30;;;12.90;99.90;;;;;;5080848;28;20040;-76
2022/09/26 03:29:03;;;;;;;12.50;4.05;;;13.00;99.90;;;;;;5097699;28;20044;-76
2022/09/26 03:31:30;;;;;;;13.15;4.53;;;13.00;99.90;;;;;;5132167;27;20035;-76
2022/09/26 03:33:55;;;;;;;9.27;4.43;;;13.00;99.90;;;;;;5080766;28;20128;-76
2022/09/26 03:36:22;;;;;;;15.05;5.07;;;13.10;99.90;;;;;;5098860;28;20388;-76
2022/09/26 03:38:48;;;;;;;9.80;4.28;;;13.00;99.90;;;;;;5132120;27;20036;-76
2022/09/26 03:41:13;;;;;;;13.68;5.50;;;13.00;99.90;;;;;;5108064;27;20045;-77
2022/09/26 03:43:42;;;;;;;8.27;5.20;;;13.00;99.90;;;;;;5151122;27;20039;-76
2022/09/26 03:46:10;;;;;;;9.52;5.25;;;13.00;99.90;;;;;;5117580;28;20079;-75
2022/09/26 03:48:37;;;;;;;12.25;5.00;;;13.00;99.90;;;;;;5117778;28;20054;-76
2022/09/26 03:51:05;;;;;;;13.73;5.30;;;13.00;99.90;;;;;;5119016;28;20140;-76
2022/09/26 03:53:35;;;;;;;10.35;4.90;;;13.00;99.90;;;;;;5119005;28;20103;-76
2022/09/26 03:56:06;;;;;;;8.07;5.25;;;13.10;99.90;;;;;;5118599;28;20036;-76
2022/09/26 03:58:33;;;;;;;13.43;5.28;;;13.10;99.90;;;;;;5100469;28;20122;-76
2022/09/26 04:01:03;;;;;;;11.25;5.78;;;12.90;99.90;;;;;;5118860;28;20362;-76
2022/09/26 04:03:32;;;;;;;10.27;6.15;;;13.00;99.90;;;;;;5117476;28;20048;-76
2022/09/26 04:05:58;;;;;;;11.07;5.75;;;12.90;99.90;;;;;;5118746;28;20047;-76
2022/09/26 04:08:24;;;;;;;7.90;4.82;;;13.00;99.90;;;;;;5118405;28;20043;-76
2022/09/26 04:10:49;;;;;;;11.77;7.05;;;12.90;99.90;;;;;;5117334;28;20044;-76
2022/09/26 04:13:15;;;;;;;13.75;6.63;;;12.90;99.90;;;;;;5151616;27;20050;-76
2022/09/26 04:15:40;;;;;;;15.75;6.38;;;12.80;99.90;;;;;;5118543;28;20042;-76
2022/09/26 04:18:07;;;;;;;12.30;6.20;;;12.90;99.90;;;;;;5118373;28;20051;-77
2022/09/26 04:20:32;;;;;;;18.40;6.25;;;12.80;99.90;;;;;;5117122;28;20435;-76
2022/09/26 04:22:58;;;;;;;17.65;7.18;;;12.80;99.90;;;;;;5151762;27;20044;-76
2022/09/26 04:25:24;;;;;;;9.00;5.30;;;12.80;99.90;;;;;;5151340;27;20047;-76
2022/09/26 04:27:49;;;;;;;14.18;6.97;;;12.90;99.90;;;;;;5117262;28;20071;-76
2022/09/26 04:30:15;;;;;;;9.88;5.43;;;12.80;99.90;;;;;;5151302;27;20063;-76
2022/09/26 04:32:41;;;;;;;9.32;5.93;;;12.70;99.90;;;;;;5099957;28;20046;-77
2022/09/26 04:35:07;;;;;;;9.52;5.75;;;12.70;99.90;;;;;;5117095;28;20096;-76
2022/09/26 04:37:35;;;;;;;17.17;8.25;;;12.80;99.90;;;;;;5151150;27;20075;-76
2022/09/26 04:40:03;;;;;;;11.82;6.57;;;12.90;99.90;;;;;;5116864;28;20047;-76
2022/09/26 04:42:32;;;;;;;12.45;5.97;;;12.70;99.90;;;;;;5116974;28;20092;-76
2022/09/26 04:44:58;;;;;;;11.82;6.00;;;12.70;99.90;;;;;;5117896;28;20146;-77
2022/09/26 04:47:24;;;;;;;18.42;7.13;;;12.80;99.90;;;;;;5134026;27;20456;-76
2022/09/26 04:49:50;;;;;;;11.63;6.20;;;12.80;99.90;;;;;;5150947;27;20043;-76
2022/09/26 04:52:16;;;;;;;11.68;6.82;;;12.80;99.90;;;;;;5116792;28;20340;-76
2022/09/26 04:54:41;;;;;;;11.68;6.20;;;12.70;99.90;;;;;;5117138;28;20044;-76
2022/09/26 04:57:07;;;;;;;12.95;6.72;;;12.60;99.90;;;;;;5117264;28;20046;-76
2022/09/26 04:59:33;;;;;;;9.10;5.72;;;12.70;99.90;;;;;;5116670;28;20413;-76
2022/09/26 05:01:59;;;;;;;13.05;6.78;;;12.60;99.90;;;;;;5117371;28;20039;-76
2022/09/26 05:04:25;;;;;;;17.23;7.15;;;12.60;99.90;;;;;;5116632;28;20114;-76
2022/09/26 05:06:50;;;;;;;12.75;6.28;;;12.60;99.90;;;;;;5117598;28;20460;-76
2022/09/26 05:09:16;;;;;;;10.90;5.82;;;12.60;99.90;;;;;;5117245;28;20043;-76
2022/09/26 05:11:42;;;;;;;10.63;5.90;;;12.40;99.90;;;;;;5099286;28;20092;-76
2022/09/26 05:14:08;;;;;;;14.50;5.53;;;12.40;99.90;;;;;;5116589;28;20040;-77
2022/09/26 05:16:33;;;;;;;16.17;5.57;;;12.40;99.90;;;;;;5116168;28;20043;-76
2022/09/26 05:18:59;;;;;;;9.57;5.63;;;12.50;99.90;;;;;;5117107;28;20043;-76
2022/09/26 05:21:25;;;;;;;12.93;7.47;;;12.70;99.90;;;;;;5117202;28;20042;-76
2022/09/26 05:26:40;;;;;;;14.52;7.30;;;12.50;99.90;;;;;;5116966;28;20050;-76
2022/09/26 05:29:05;;;;;;;12.57;6.32;;;12.50;99.90;;;;;;5117035;28;20035;-76
2022/09/26 05:31:36;;;;;;;15.20;7.05;;;12.60;99.90;;;;;;5150154;27;20119;-76
2022/09/26 05:34:09;;;;;;;11.95;7.60;;;12.50;99.90;;;;;;5117410;28;20040;-76
2022/09/26 05:36:35;;;;;;;15.00;7.80;;;12.50;99.90;;;;;;5115826;28;20043;-76
2022/09/26 05:39:02;;;;;;;17.27;7.55;;;12.70;99.90;;;;;;5117034;28;20332;-76
2022/09/26 05:41:32;;;;;;;9.98;6.63;;;12.60;99.90;;;;;;5117214;28;20046;-76
2022/09/26 05:43:58;;;;;;;14.63;7.15;;;12.40;99.90;;;;;;5117188;28;20110;-76
2022/09/26 05:46:30;;;;;;;12.40;7.00;;;12.30;99.90;;;;;;5116107;28;20044;-75
2022/09/26 05:48:56;;;;;;;11.23;6.25;;;12.40;99.90;;;;;;5116928;28;20075;-76
2022/09/26 05:51:22;;;;;;;15.02;7.28;;;12.50;99.90;;;;;;5116794;28;20090;-76
2022/09/26 05:53:49;;;;;;;11.77;6.35;;;12.50;99.90;;;;;;5115502;28;20043;-76
2022/09/26 05:56:16;;;;;;;12.82;7.53;;;12.40;99.90;;;;;;5115785;28;20378;-76
2022/09/26 05:58:42;;;;;;;13.57;7.47;;;12.50;99.90;;;;;;5116711;28;20040;-75
2022/09/26 06:01:11;;;;;;;11.20;6.60;;;12.60;99.90;;;;;;5150177;27;20447;-76
2022/09/26 06:03:37;;;;;;;11.95;7.80;;;12.60;99.90;;;;;;5116984;28;20107;-76
2022/09/26 06:06:20;;;;;;;18.25;8.68;;;12.60;99.90;;;;;;5117010;28;20043;-76
2022/09/26 06:08:47;;;;;;;18.60;8.05;;;12.50;99.90;;;;;;5118859;28;20045;-76
2022/09/26 06:11:15;;;;;;;15.93;8.15;;;12.50;99.90;;;;;;5119901;28;20342;-76
2022/09/26 06:13:44;;;;;;;14.45;7.60;;;12.40;99.90;;;;;;5119818;28;20062;-76
2022/09/26 06:16:13;;;;;;;14.13;8.18;;;12.40;99.90;;;;;;5120901;28;20447;-76
2022/09/26 06:18:40;;;;;;;14.60;7.07;;;12.30;99.90;;;;;;5102434;28;20054;-76
2022/09/26 06:21:09;;;;;;;10.40;6.07;;;12.30;99.90;;;;;;5119770;28;20039;-76
2022/09/26 06:23:35;;;;;;;14.45;7.07;;;12.20;99.90;;;;;;5120401;28;20442;-76
2022/09/26 06:26:02;;;;;;;14.88;6.47;;;12.20;99.90;;;;;;5120330;28;20111;-76
2022/09/26 06:28:29;;;;;;;10.70;6.50;;;12.20;99.90;;;;;;5119574;28;20150;-76
2022/09/26 06:30:56;;;;;;;11.52;6.15;;;12.10;99.90;;;;;;5120638;28;20051;-76
2022/09/26 06:33:22;;;;;;;15.02;7.28;;;12.20;99.90;;;;;;5120564;28;20058;-76
2022/09/26 06:36:02;;;;;;;12.60;6.15;;;12.10;99.90;;;;;;5119534;28;20324;-77
2022/09/26 06:38:28;;;;;;;14.55;5.95;;;12.10;99.90;;;;;;5119185;28;20071;-76
2022/09/26 06:40:54;;;;;;;13.93;6.47;;;12.20;99.90;;;;;;5119464;28;20116;-76
2022/09/26 06:43:20;;;;;;;9.32;5.97;;;12.20;99.90;;;;;;5136161;27;20046;-76
2022/09/26 06:45:48;;;;;;;18.15;6.38;;;12.20;99.90;;;;;;5118900;28;20060;-76
2022/09/26 06:48:17;;;;;;;11.10;6.63;;;12.20;99.90;;;;;;5120269;28;20052;-76
2022/09/26 06:50:43;;;;;;;13.40;6.85;;;12.10;99.90;;;;;;5120241;28;20032;-76
2022/09/26 06:53:09;;;;;;;11.30;5.80;;;12.20;99.90;;;;;;5153503;27;20378;-70
2022/09/26 06:55:35;;;;;;;14.90;6.07;;;12.20;99.90;;;;;;5119469;28;20122;-70
2022/09/26 06:58:01;;;;;;;11.18;6.82;;;12.10;99.90;;;;;;5119733;28;20140;-73
2022/09/26 07:00:34;;;;;;;11.75;6.47;;;12.30;99.90;;;;;;5120048;28;20320;-73
2022/09/26 07:03:00;;;;;;;9.18;6.28;;;12.10;99.90;;;;;;5118714;28;20079;-71
2022/09/26 07:05:25;;;;;;;12.13;6.13;;;12.20;99.90;;;;;;5119725;28;20070;-72
2022/09/26 07:07:54;;;;;;;12.15;6.10;;;12.20;99.90;;;;;;5119926;28;20032;-72
2022/09/26 07:10:20;;;;;;;10.40;5.20;;;12.20;99.90;;;;;;5119849;28;20078;-72
2022/09/26 07:12:47;;;;;;;10.75;5.95;;;12.10;99.90;;;;;;5119800;28;20313;-72
2022/09/26 07:15:15;;;;;;;17.95;6.68;;;12.30;99.90;;;;;;5121367;28;20421;-74
2022/09/26 07:17:42;;;;;;;11.85;5.75;;;12.30;99.90;;;;;;5123334;28;20036;-77
2022/09/26 07:20:13;;;;;;;9.93;4.75;;;12.40;99.90;;;;;;5119299;28;20040;-74
2022/09/26 07:22:39;;;;;;;10.88;5.32;;;12.20;99.90;;;;;;5119623;28;20101;-75
2022/09/26 07:25:05;;;;;;;11.48;5.05;;;12.30;99.90;;;;;;5118951;28;20420;-75
2022/09/26 07:27:31;;;;;;;10.82;5.43;;;12.20;99.90;;;;;;5118239;28;20043;-75
2022/09/26 07:29:57;;;;;;;7.70;4.88;;;12.20;99.90;;;;;;5119481;28;20043;-75
2022/09/26 07:32:24;;;;;;;10.52;5.28;;;12.10;99.90;;;;;;5119411;28;20089;-74
2022/09/26 07:34:50;;;;;;;10.38;4.85;;;12.20;99.90;;;;;;5119075;28;20420;-76
2022/09/26 07:37:16;;;;;;;14.57;5.53;;;12.10;99.90;;;;;;5119028;28;20050;-75
2022/09/26 07:39:42;;;;;;;13.38;5.55;;;12.10;99.90;;;;;;5119273;28;20031;-75
2022/09/26 07:42:08;;;;;;;12.52;6.05;;;12.20;99.90;;;;;;5152325;27;20389;-75
2022/09/26 07:44:34;;;;;;;11.70;5.00;;;12.40;99.90;;;;;;5100968;28;20315;-75
2022/09/26 07:52:32;;;;;;;12.52;4.88;;;12.30;99.90;;;;;;5118423;28;20045;-75
2022/09/26 07:54:58;;;;;;;11.10;4.53;;;12.30;99.90;;;;;;5118249;28;20118;-75
2022/09/26 07:57:24;;;;;;;8.93;4.13;;;12.30;99.90;;;;;;5117569;28;20051;-75
2022/09/26 07:59:50;;;;;;;9.95;4.93;;;12.40;99.90;;;;;;5118887;28;20052;-75
2022/09/26 08:02:23;;;;;;;12.48;4.22;;;12.50;99.90;;;;;;5100489;28;20344;-75
2022/09/26 08:04:49;;;;;;;7.57;4.25;;;12.40;99.90;;;;;;5118794;28;20035;-78
2022/09/26 08:07:15;;;;;;;8.57;4.80;;;12.40;99.90;;;;;;5100392;28;20336;-83
2022/09/26 08:09:41;;;;;;;8.95;3.70;;;12.50;99.90;;;;;;5117737;28;20039;-75
2022/09/26 08:12:07;;;;;;;9.30;4.30;;;12.50;99.90;;;;;;5117594;28;20075;-75
2022/09/26 08:14:33;;;;;;;6.13;3.50;;;12.40;99.90;;;;;;5118547;28;20066;-76
2022/09/26 08:16:58;;;;;;;10.07;4.18;;;12.60;99.90;;;;;;5151870;27;20327;-75
2022/09/26 08:19:24;;;;;;;8.75;4.00;;;12.70;99.90;;;;;;5118472;28;20397;-73
2022/09/26 08:21:50;;;;;;;10.90;4.28;;;12.60;99.90;;;;;;5118111;28;20043;-73
2022/09/26 08:24:16;;;;;;;9.98;4.10;;;12.70;99.90;;;;;;5117966;28;20055;-73
2022/09/26 08:26:41;;;;;;;9.32;3.88;;;12.70;99.90;;;;;;5117008;28;20366;-73
2022/09/26 08:29:11;;;;;;;8.55;3.97;;;12.80;99.90;;;;;;5116678;28;20040;-71
2022/09/26 08:31:40;;;;;;;7.00;3.55;;;12.80;99.90;;;;;;5116306;28;20047;-71
2022/09/26 08:34:06;;;;;;;7.43;3.05;;;12.70;99.90;;;;;;5100943;28;20052;-72
2022/09/26 08:36:34;;;;;;;10.48;3.78;;;12.60;99.90;;;;;;5116478;28;20115;-71
2022/09/26 08:39:01;;;;;;;6.35;3.13;;;12.80;99.90;;;;;;5112019;27;20048;-71
2022/09/26 08:42:04;;;;;;;9.27;3.53;;;12.60;99.90;;;;;;5105832;28;20067;-71
2022/09/26 08:44:52;;;;;;;7.95;3.30;;;12.50;99.90;;;;;;5097325;28;20042;-70
2022/09/26 08:47:42;;;;;;;8.27;3.83;;;12.40;99.90;;;;;;5112164;28;20043;-73
2022/09/26 08:50:23;;;;;;;7.22;3.78;;;12.40;99.90;;;;;;5117614;28;20081;-73
2022/09/26 08:53:00;;;;;;;10.35;3.47;;;12.30;99.90;;;;;;5117511;28;20051;-75
2022/09/26 08:55:30;;;;;;;6.93;3.70;;;12.40;99.90;;;;;;5116629;28;20039;-73
2022/09/26 08:58:14;;;;;;;6.15;3.30;;;12.30;99.90;;;;;;5117711;28;20043;-72
2022/09/26 09:00:40;;;;;;;8.13;4.32;;;12.50;99.90;;;;;;5117489;28;20126;-70
2022/09/26 09:03:11;;;;;;;6.70;3.50;;;12.70;99.90;;;;;;5117360;28;20436;-74
2022/09/26 09:05:42;;;;;;;10.82;3.60;;;12.70;99.90;;;;;;5117636;28;20100;-72
2022/09/26 09:08:15;;;;;;;7.15;3.28;;;12.80;99.90;;;;;;5117692;28;20126;-72
2022/09/26 09:10:49;;;;;;;6.85;3.22;;;12.70;99.90;;;;;;5117255;28;20560;-72
2022/09/26 09:13:47;;;;;;;7.30;3.42;;;12.70;99.90;;;;;;5117308;28;20035;-73
2022/09/26 09:16:35;;;;;;;8.68;3.67;;;12.80;99.90;;;;;;5117624;28;20093;-73
2022/09/26 09:19:19;;;;;;;10.38;3.97;;;12.70;99.90;;;;;;5117517;28;20040;-72
2022/09/26 09:21:48;;;;;;;11.65;4.05;;;12.80;99.90;;;;;;5117452;28;20039;-72
2022/09/26 09:24:18;;;;;;;6.60;3.58;;;12.80;99.90;;;;;;5116683;28;20417;-72
2022/09/26 09:26:55;;;;;;;8.52;3.83;;;12.80;99.90;;;;;;5117380;28;20036;-72
2022/09/26 09:29:50;;;;;;;9.77;3.67;;;12.70;99.90;;;;;;5117381;28;20070;-73
2022/09/26 09:32:20;;;;;;;9.25;3.30;;;12.70;99.90;;;;;;5080377;28;20325;-72
2022/09/26 09:34:48;;;;;;;6.90;4.00;;;12.70;99.90;;;;;;5117301;28;20070;-72
2022/09/26 09:37:25;;;;;;;7.25;3.70;;;12.80;99.90;;;;;;5117238;28;20043;-72
2022/09/26 09:39:52;;;;;;;8.52;3.45;;;12.90;99.90;;;;;;5116332;28;20039;-72
2022/09/26 09:42:39;;;;;;;11.77;3.63;;;12.90;99.90;;;;;;5118399;28;20416;-73
2022/09/26 09:45:18;;;;;;;7.90;3.53;;;12.90;99.90;;;;;;5121251;28;20054;-72
2022/09/26 09:47:45;;;;;;;10.95;4.15;;;13.00;99.90;;;;;;5121531;28;20048;-72
2022/09/26 09:50:21;;;;;;;9.00;4.10;;;13.20;99.90;;;;;;5120164;28;20046;-72
2022/09/26 09:53:05;;;;;;;8.13;3.38;;;13.10;99.90;;;;;;5121422;28;20036;-72
2022/09/26 09:56:13;;;;;;;9.55;3.80;;;13.10;99.90;;;;;;5120916;28;20433;-73
2022/09/26 09:58:44;;;;;;;7.63;3.35;;;13.00;99.90;;;;;;5121243;28;20071;-72
2022/09/26 10:01:20;;;;;;;10.68;3.45;;;13.00;99.90;;;;;;5121161;28;20092;-72
2022/09/26 10:03:57;;;;;;;5.72;3.42;;;13.10;99.90;;;;;;5121092;28;20043;-72
2022/09/26 10:06:24;;;;;;;9.95;3.97;;;13.10;99.90;;;;;;5120833;28;20118;-73
2022/09/26 10:08:50;;;;;;;10.07;4.20;;;13.20;99.90;;;;;;5107392;27;20035;-73
2022/09/26 10:11:40;;;;;;;7.78;4.03;;;13.30;99.90;;;;;;5109276;28;20100;-72
2022/09/26 10:14:12;;;;;;;11.32;4.63;;;13.30;99.90;;;;;;5120824;28;20407;-72
2022/09/26 10:17:09;;;;;;;9.88;3.85;;;13.00;99.90;;;;;;5103831;28;20117;-72
2022/09/26 10:19:39;;;;;;;7.05;4.50;;;13.00;99.90;;;;;;5099783;28;20310;-72
2022/09/26 10:22:14;;;;;;;7.55;4.43;;;13.00;99.90;;;;;;5097575;28;20417;-72
2022/09/26 10:24:40;;;;;;;13.50;5.13;;;13.00;99.90;;;;;;5107285;28;20031;-70
2022/09/26 10:27:36;;;;;;;13.15;4.95;;;13.10;99.90;;;;;;5120426;28;20044;-71
2022/09/26 10:30:17;;;;;;;10.65;5.25;;;13.20;99.90;;;;;;5104597;28;20040;-71
2022/09/26 10:32:54;;;;;;;13.55;4.45;;;13.20;99.90;;;;;;5099893;28;20051;-71
2022/09/26 10:35:24;;;;;;;11.35;4.88;;;13.10;99.90;;;;;;5100582;28;20043;-70
2022/09/26 10:38:07;;;;;;;12.32;5.55;;;13.20;99.90;;;;;;5099321;28;20040;-70
2022/09/26 10:40:46;;;;;;;8.60;5.05;;;13.10;99.90;;;;;;5099644;28;20043;-71
2022/09/26 10:43:19;;;;;;;14.55;5.65;;;13.20;99.90;;;;;;5099819;28;20043;-72
2022/09/26 10:45:53;;;;;;;8.95;4.80;;;13.30;99.90;;;;;;5099407;28;20058;-72
2022/09/26 10:48:25;;;;;;;12.45;4.82;;;13.30;99.90;;;;;;5099459;28;20043;-72
2022/09/26 10:50:59;;;;;;;10.00;5.45;;;13.10;99.90;;;;;;5099930;28;20512;-71
2022/09/26 10:53:29;;;;;;;11.30;5.38;;;13.20;99.90;;;;;;5099250;28;20051;-70
2022/09/26 10:56:01;;;;;;;9.18;5.57;;;13.10;99.90;;;;;;5098587;28;20048;-71
2022/09/26 10:58:28;;;;;;;8.80;5.32;;;13.10;99.90;;;;;;5099122;28;20477;-71
2022/09/26 11:00:56;;;;;;;11.55;5.78;;;13.20;99.90;;;;;;5081194;28;20036;-72
2022/09/26 11:03:39;;;;;;;11.88;6.20;;;13.20;99.90;;;;;;5098855;28;20038;-77
2022/09/26 11:06:19;;;;;;;9.27;5.30;;;13.20;99.90;;;;;;5098549;28;20039;-75
2022/09/26 11:08:52;;;;;;;9.18;5.43;;;13.20;99.90;;;;;;5118606;27;20040;-76
2022/09/26 11:11:20;;;;;;;9.75;5.50;;;13.20;99.90;;;;;;5099189;28;20035;-75
2022/09/26 11:13:55;;;;;;;10.77;5.35;;;13.30;99.90;;;;;;5099268;28;20388;-73
2022/09/26 11:16:20;;;;;;;9.80;5.82;;;13.40;99.90;;;;;;5099232;28;20036;-73
2022/09/26 11:18:49;;;;;;;13.15;6.97;;;13.20;99.90;;;;;;5098879;28;20051;-73
2022/09/26 11:21:24;;;;;;;11.57;5.93;;;13.40;99.90;;;;;;5098680;28;20123;-73
2022/09/26 11:24:01;;;;;;;11.82;6.35;;;13.30;99.90;;;;;;5099129;28;20040;-73
2022/09/26 11:26:37;;;;;;;13.57;6.30;;;13.30;99.90;;;;;;5099221;28;20047;-73
2022/09/26 11:29:17;;;;;;;10.95;5.53;;;13.40;99.90;;;;;;5099728;28;20024;-74
2022/09/26 11:31:44;;;;;;;9.10;4.63;;;13.30;99.90;;;;;;5100599;28;20028;-75
2022/09/26 11:34:20;;;;;;;11.27;6.00;;;13.40;99.90;;;;;;5097726;28;20139;-76
2022/09/26 11:37:35;;;;;;;11.88;6.68;;;13.30;99.90;;;;;;5098544;28;20044;-75
2022/09/26 11:40:08;;;;;;;8.07;4.88;;;13.50;99.90;;;;;;5061699;28;20083;-76
2022/09/26 11:42:45;;;;;;;7.80;4.43;;;13.50;99.90;;;;;;5099266;28;20028;-75
2022/09/26 11:45:39;;;;;;;9.50;4.82;;;13.40;99.90;;;;;;5098224;28;20084;-76
2022/09/26 11:48:24;;;;;;;10.27;4.53;;;13.40;99.90;;;;;;5098664;28;20052;-75
2022/09/26 11:51:07;;;;;;;11.45;5.07;;;13.30;99.90;;;;;;5098317;28;20040;-75
2022/09/26 11:53:44;;;;;;;11.85;4.43;;;13.20;99.90;;;;;;5098525;28;20047;-75
2022/09/26 11:56:28;;;;;;;9.15;4.55;;;13.30;99.90;;;;;;5097500;28;20425;-76
2022/09/26 11:59:03;;;;;;;8.18;4.88;;;13.30;99.90;;;;;;5098731;28;20047;-74
2022/09/26 12:02:14;;;;;;;10.10;4.93;;;13.40;99.90;;;;;;5098046;28;20480;-74
2022/09/26 12:05:12;;;;;;;8.70;5.90;;;13.30;99.90;;;;;;5070033;28;20461;-75
2022/09/26 12:08:15;;;;;;;10.30;5.35;;;13.30;99.90;;;;;;5096948;28;20417;-74
2022/09/26 12:11:04;;;;;;;9.13;6.05;;;13.30;99.90;;;;;;5098278;28;20043;-76
2022/09/26 12:13:33;;;;;;;7.25;4.25;;;13.30;99.90;;;;;;5098207;28;20047;-77
2022/09/26 12:16:31;;;;;;;7.75;4.60;;;13.30;99.90;;;;;;5098198;28;20137;-77
2022/09/26 12:19:12;;;;;;;12.10;5.90;;;13.30;99.90;;;;;;5097699;28;20311;-77
2022/09/26 12:25:15;;;;;;;8.05;5.57;;;13.40;99.90;;;;;;5097587;28;20105;-76
2022/09/26 12:28:07;;;;;;;7.10;5.32;;;13.50;99.90;;;;;;5098025;28;20040;-75
2022/09/26 12:30:47;;;;;;;8.38;5.35;;;13.50;99.90;;;;;;5097457;28;20085;-73
2022/09/26 12:33:19;;;;;;;8.50;5.93;;;13.50;99.90;;;;;;5096692;28;20298;-74
2022/09/26 12:36:21;;;;;;;9.95;5.82;;;13.30;99.90;;;;;;5097843;28;20044;-73
2022/09/26 12:39:04;;;;;;;8.30;4.65;;;13.40;99.90;;;;;;5093905;28;20047;-73
2022/09/26 12:42:01;;;;;;;6.32;5.00;;;13.40;99.90;;;;;;5097739;28;20035;-73
2022/09/26 12:44:43;;;;;;;9.40;4.93;;;13.40;99.90;;;;;;5097658;28;20040;-74
2022/09/26 12:47:26;;;;;;;8.63;5.57;;;13.50;99.90;;;;;;5097598;28;20047;-73
2022/09/26 12:50:06;;;;;;;7.75;4.93;;;13.50;99.90;;;;;;5096305;28;20050;-73
2022/09/26 12:53:00;;;;;;;8.57;5.57;;;13.50;99.90;;;;;;5097594;28;20388;-73
2022/09/26 12:55:49;;;;;;;6.07;4.50;;;13.50;99.90;;;;;;5097017;28;20103;-74
2022/09/26 12:58:20;;;;;;;10.32;6.13;;;13.60;99.90;;;;;;5097146;28;20494;-73
2022/09/26 13:01:10;;;;;;;8.88;4.13;;;13.70;99.90;;;;;;5097111;28;20044;-74
2022/09/26 13:03:46;;;;;;;8.55;4.70;;;13.50;99.90;;;;;;5097419;28;20341;-74
2022/09/26 13:06:40;;;;;;;8.98;4.93;;;13.60;99.90;;;;;;5097427;28;20135;-75
2022/09/26 13:09:24;;;;;;;5.85;3.92;;;13.60;99.90;;;;;;5097098;28;20048;-75
2022/09/26 13:12:12;;;;;;;8.32;5.07;;;13.60;99.90;;;;;;5097250;28;20043;-75
2022/09/26 13:15:06;;;;;;;7.43;5.40;;;13.70;99.90;;;;;;5096442;28;20048;-75
2022/09/26 13:17:40;;;;;;;7.05;5.07;;;13.80;99.90;;;;;;5108377;28;20048;-75
2022/09/26 13:20:30;;;;;;;7.18;5.20;;;13.90;99.90;;;;;;5096216;28;20105;-75
2022/09/26 13:23:03;;;;;;;3.47;3.08;;;13.90;99.90;;;;;;5097070;28;20128;-82
2022/09/26 13:25:42;;;;;;;7.97;3.50;;;14.00;99.90;;;;;;5078473;28;20040;-74
2022/09/26 13:28:23;;;;;;;4.45;3.20;;;14.00;99.90;;;;;;5097505;28;20036;-74